Time;durP1;ratioP1;P1;durP2;ratioP2;P2;SDS_P1;SDS_P2;PMS_P1;PMS_P2;Temp;Humidity;BMP_temperature;BMP_pressure;BME280_temperature;BME280_humidity;BME280_pressure;Samples;Min_cycle;Max_cycle;Signal;HPM_P1;HPM_P2
2023/09/19 00:00:25;;;;;;;3.77;3.57;;;;;;;14.61;100.00;96547.63;4936260;28;20655;-60
2023/09/19 00:02:54;;;;;;;3.60;3.30;;;;;;;14.72;100.00;96546.06;4936998;28;20207;-60
2023/09/19 00:05:23;;;;;;;3.17;2.97;;;;;;;14.78;100.00;96541.69;4935666;28;20227;-59
2023/09/19 00:07:54;;;;;;;4.00;3.33;;;;;;;14.78;100.00;96538.22;4937123;28;20324;-60
2023/09/19 00:10:24;;;;;;;3.53;3.23;;;;;;;14.81;100.00;96546.56;4806689;28;20238;-61
2023/09/19 00:12:55;;;;;;;3.63;3.33;;;;;;;14.76;100.00;96541.91;4935489;28;20277;-57
2023/09/19 00:15:23;;;;;;;3.73;3.43;;;;;;;14.81;100.00;96538.56;4933683;28;20262;-59
2023/09/19 00:17:52;;;;;;;3.50;3.27;;;;;;;14.82;100.00;96534.03;4939275;28;20219;-59
2023/09/19 00:20:22;;;;;;;4.33;2.90;;;;;;;14.78;100.00;96544.38;4934563;28;20636;-60
2023/09/19 00:22:50;;;;;;;4.77;3.03;;;;;;;14.78;100.00;96539.03;4937482;28;20215;-61
2023/09/19 00:25:18;;;;;;;4.27;3.53;;;;;;;14.78;100.00;96539.03;4885395;28;20322;-60
2023/09/19 00:27:47;;;;;;;4.13;3.53;;;;;;;14.72;100.00;96540.75;4938534;28;20223;-60
2023/09/19 00:30:19;;;;;;;3.43;3.23;;;;;;;14.72;100.00;96538.06;4873609;28;20719;-61
2023/09/19 00:32:48;;;;;;;5.30;3.40;;;;;;;14.79;100.00;96542.50;4939226;28;20215;-61
2023/09/19 00:35:16;;;;;;;4.30;3.90;;;;;;;14.74;100.00;96543.16;4934381;28;20495;-61
2023/09/19 00:37:44;;;;;;;3.70;3.47;;;;;;;14.75;100.00;96540.28;4941739;28;20203;-61
2023/09/19 00:40:15;;;;;;;3.57;3.27;;;;;;;14.78;100.00;96535.53;4940036;28;20213;-61
2023/09/19 00:42:43;;;;;;;3.80;3.50;;;;;;;14.66;100.00;96527.47;4953445;28;20307;-61
2023/09/19 00:45:12;;;;;;;4.23;3.93;;;;;;;14.62;100.00;96541.25;4822831;28;20230;-60
2023/09/19 00:47:43;;;;;;;4.10;3.70;;;;;;;14.62;100.00;96540.44;4952524;28;20230;-60
2023/09/19 00:50:14;;;;;;;3.73;3.43;;;;;;;14.65;100.00;96542.66;4941065;28;20270;-58
2023/09/19 00:52:43;;;;;;;4.20;3.80;;;;;;;14.65;100.00;96534.66;4940469;28;20218;-60
2023/09/19 00:55:14;;;;;;;3.70;3.40;;;;;;;14.50;100.00;96537.72;4936977;28;20241;-60
2023/09/19 00:57:41;;;;;;;3.53;3.30;;;;;;;14.51;100.00;96550.00;4939965;28;20215;-58
2023/09/19 01:00:15;;;;;;;3.27;2.97;;;;;;;14.48;100.00;96545.94;4886928;28;20230;-56
2023/09/19 01:02:44;;;;;;;8.93;3.83;;;;;;;14.41;100.00;96549.75;4941961;28;20210;-61
2023/09/19 01:05:12;;;;;;;3.63;3.33;;;;;;;14.43;100.00;96564.44;4936363;28;20615;-60
2023/09/19 01:07:41;;;;;;;5.23;3.67;;;;;;;14.48;100.00;96566.47;4935777;28;20246;-60
2023/09/19 01:10:10;;;;;;;3.50;3.20;;;;;;;14.53;100.00;96560.44;4936709;28;20246;-58
2023/09/19 01:12:49;;;;;;;3.70;3.40;;;;;;;14.55;100.00;96561.03;4939415;28;20290;-60
2023/09/19 01:15:23;;;;;;;3.50;3.30;;;;;;;14.52;100.00;96561.47;4826370;28;21020;-61
2023/09/19 01:17:59;;;;;;;3.37;3.17;;;;;;;14.55;100.00;96561.03;4936732;28;20231;-59
2023/09/19 01:20:34;;;;;;;3.70;3.40;;;;;;;14.56;100.00;96559.97;4939373;28;20206;-59
2023/09/19 01:23:12;;;;;;;3.50;3.20;;;;;;;14.60;100.00;96559.31;4939092;28;20211;-60
2023/09/19 01:26:08;;;;;;;4.47;3.67;;;;;;;14.63;100.00;96552.75;4938105;28;20231;-61
2023/09/19 01:28:53;;;;;;;3.60;3.30;;;;;;;14.52;100.00;96556.13;4882244;28;20238;-61
2023/09/19 01:31:24;;;;;;;3.40;3.10;;;;;;;14.65;100.00;96563.16;4940667;28;20733;-56
2023/09/19 01:34:00;;;;;;;3.47;3.17;;;;;;;14.64;100.00;96566.88;4935187;28;20802;-58
2023/09/19 01:36:30;;;;;;;3.77;3.30;;;;;;;14.75;100.00;96568.78;4937713;28;20302;-59
2023/09/19 01:39:00;;;;;;;3.53;3.23;;;;;;;14.81;100.00;96572.41;4938550;28;20230;-61
2023/09/19 01:41:34;;;;;;;3.80;3.10;;;;;;;14.68;100.00;96571.53;4940496;28;20210;-58
2023/09/19 01:44:03;;;;;;;3.67;3.37;;;;;;;14.76;100.00;96575.75;4936185;28;20261;-60
2023/09/19 01:46:36;;;;;;;3.60;3.30;;;;;;;14.79;100.00;96572.66;4940383;28;20238;-60
2023/09/19 01:49:10;;;;;;;3.97;3.10;;;;;;;14.73;100.00;96563.69;4814796;28;20214;-60
2023/09/19 01:51:46;;;;;;;3.43;3.13;;;;;;;14.80;100.00;96573.47;4941003;28;20257;-59
2023/09/19 01:54:18;;;;;;;3.53;3.23;;;;;;;14.81;100.00;96583.91;4933002;28;20217;-59
2023/09/19 01:56:50;;;;;;;4.03;3.03;;;;;;;14.82;100.00;96582.03;4941436;28;20258;-59
2023/09/19 01:59:24;;;;;;;3.20;3.00;;;;;;;14.83;100.00;96581.00;4937074;28;20221;-58
2023/09/19 02:01:53;;;;;;;4.37;3.73;;;;;;;14.76;100.00;96584.56;4940297;28;20274;-59
2023/09/19 02:04:21;;;;;;;3.90;3.13;;;;;;;14.78;100.00;96586.19;4888343;28;20215;-59
2023/09/19 02:06:48;;;;;;;3.77;3.47;;;;;;;14.82;100.00;96582.88;4937117;28;20242;-61
2023/09/19 02:09:16;;;;;;;4.20;3.80;;;;;;;14.77;100.00;96585.38;4935515;28;20262;-60
2023/09/19 02:11:44;;;;;;;4.13;3.73;;;;;;;14.65;100.00;96585.31;4944783;28;20199;-59
2023/09/19 02:14:11;;;;;;;3.50;3.23;;;;;;;14.74;100.00;96588.50;4934513;28;20239;-60
2023/09/19 02:16:39;;;;;;;3.47;3.17;;;;;;;14.73;100.00;96593.03;4938478;28;20227;-59
2023/09/19 02:19:08;;;;;;;6.33;3.73;;;;;;;14.72;100.00;96594.06;4801681;28;20695;-61
2023/09/19 02:21:36;;;;;;;3.10;2.90;;;;;;;14.71;100.00;96581.78;4941337;28;20991;-58
2023/09/19 02:24:05;;;;;;;3.80;3.10;;;;;;;14.75;100.00;96587.44;4933715;28;20301;-60
2023/09/19 02:26:35;;;;;;;3.97;3.17;;;;;;;14.59;100.00;96584.34;4937898;28;20313;-61
2023/09/19 02:29:04;;;;;;;3.90;3.60;;;;;;;14.69;100.00;96588.31;4936629;28;20325;-60
2023/09/19 02:31:32;;;;;;;3.20;3.00;;;;;;;14.64;100.00;96586.34;4936634;28;20208;-59
2023/09/19 02:34:00;;;;;;;3.50;3.20;;;;;;;14.70;100.00;96588.16;4934381;28;20679;-59
2023/09/19 02:36:30;;;;;;;2.97;2.77;;;;;;;14.69;100.00;96589.16;4939215;28;20227;-61
2023/09/19 02:38:57;;;;;;;3.20;2.90;;;;;;;14.60;100.00;96590.50;4887062;28;20273;-59
2023/09/19 02:41:25;;;;;;;3.33;3.03;;;;;;;14.59;100.00;96595.00;4935892;28;20203;-61
2023/09/19 02:43:53;;;;;;;3.63;2.80;;;;;;;14.69;100.00;96593.66;4936938;28;20294;-59
2023/09/19 02:46:21;;;;;;;3.20;2.90;;;;;;;14.67;100.00;96593.91;4938777;28;20222;-59
2023/09/19 02:48:49;;;;;;;3.20;2.90;;;;;;;14.63;100.00;96590.06;4873394;28;20238;-60
2023/09/19 02:51:17;;;;;;;3.97;2.47;;;;;;;14.69;100.00;96591.00;4939810;28;20211;-61
2023/09/19 02:53:47;;;;;;;2.80;2.60;;;;;;;14.73;100.00;96597.53;4807386;28;20238;-61
2023/09/19 02:56:15;;;;;;;4.47;2.97;;;;;;;14.80;100.00;96597.47;4932907;28;20250;-61
2023/09/19 02:58:43;;;;;;;3.03;2.83;;;;;;;14.78;100.00;96595.03;4934950;28;20413;-62
2023/09/19 03:01:12;;;;;;;2.70;2.50;;;;;;;14.73;100.00;96598.38;4938486;28;20218;-60
2023/09/19 03:03:40;;;;;;;4.00;3.13;;;;;;;14.74;100.00;96601.81;4938136;28;20290;-61
2023/09/19 03:06:09;;;;;;;3.93;2.80;;;;;;;14.81;100.00;96607.09;4936917;28;20261;-61
2023/09/19 03:08:39;;;;;;;3.50;3.20;;;;;;;14.83;100.00;96610.34;4855223;28;21753;-57
2023/09/19 03:11:14;;;;;;;3.67;3.07;;;;;;;14.76;100.00;96605.91;4934780;28;20218;-61
2023/09/19 03:13:44;;;;;;;3.80;2.87;;;;;;;14.75;100.00;96606.94;4908269;28;20781;-60
2023/09/19 03:16:14;;;;;;;2.80;2.60;;;;;;;14.77;100.00;96612.03;4936238;28;20235;-60
2023/09/19 03:18:43;;;;;;;5.60;3.30;;;;;;;14.70;100.00;96616.63;4934372;28;20325;-61
2023/09/19 03:21:10;;;;;;;2.80;2.60;;;;;;;14.64;100.00;96620.19;4938920;28;20247;-59
2023/09/19 03:23:43;;;;;;;3.23;3.03;;;;;;;14.68;100.00;96613.38;4890941;28;21266;-58
2023/09/19 03:26:12;;;;;;;2.70;2.60;;;;;;;14.72;100.00;96622.56;4871709;28;20726;-60
2023/09/19 03:28:42;;;;;;;3.87;3.20;;;;;;;14.67;100.00;96617.91;4938492;28;20254;-60
2023/09/19 03:31:10;;;;;;;2.97;2.77;;;;;;;14.62;100.00;96631.09;4936666;28;20266;-61
2023/09/19 03:33:39;;;;;;;2.87;2.67;;;;;;;14.61;100.00;96630.25;4935968;28;20203;-60
2023/09/19 03:36:07;;;;;;;2.93;2.73;;;;;;;14.64;100.00;96634.34;4932727;28;20527;-62
2023/09/19 03:38:35;;;;;;;3.57;3.27;;;;;;;14.69;100.00;96631.81;4935060;28;20199;-61
2023/09/19 03:41:03;;;;;;;4.07;2.80;;;;;;;14.70;100.00;96633.47;4819819;28;20226;-60
2023/09/19 03:43:32;;;;;;;2.97;2.80;;;;;;;14.67;100.00;96633.06;4870519;28;20223;-58
2023/09/19 03:46:04;;;;;;;2.93;2.73;;;;;;;14.74;100.00;96632.00;4938948;28;20457;-60
2023/09/19 03:48:33;;;;;;;2.77;2.67;;;;;;;14.75;100.00;96636.28;4934820;28;20411;-61
2023/09/19 03:51:02;;;;;;;3.40;2.90;;;;;;;14.79;100.00;96627.84;4938757;28;20210;-60
2023/09/19 03:53:29;;;;;;;3.03;2.83;;;;;;;14.78;100.00;96628.88;4935460;28;20261;-61
2023/09/19 03:55:57;;;;;;;3.07;2.97;;;;;;;14.82;100.00;96638.88;4938518;28;20277;-61
2023/09/19 03:58:25;;;;;;;3.20;2.90;;;;;;;14.79;100.00;96635.81;4874466;28;20874;-62
2023/09/19 04:00:56;;;;;;;3.77;2.90;;;;;;;14.82;100.00;96635.38;4937136;28;20206;-59
2023/09/19 04:03:34;;;;;;;2.80;2.70;;;;;;;14.82;100.00;96638.03;4931023;28;20231;-61
2023/09/19 04:06:02;;;;;;;3.40;3.10;;;;;;;14.80;100.00;96638.28;4937650;28;20218;-59
2023/09/19 04:08:30;;;;;;;3.27;2.87;;;;;;;14.75;100.00;96638.13;4931455;28;20227;-60
2023/09/19 04:10:58;;;;;;;2.77;2.57;;;;;;;14.74;100.00;96639.97;4935325;28;20281;-60
2023/09/19 04:13:26;;;;;;;2.70;2.50;;;;;;;14.75;100.00;96636.28;4818130;28;20301;-60
2023/09/19 04:15:54;;;;;;;3.77;2.93;;;;;;;14.76;100.00;96645.06;4934798;28;20227;-60
2023/09/19 04:18:23;;;;;;;2.97;2.77;;;;;;;14.75;100.00;96646.13;4933036;28;20677;-61
2023/09/19 04:20:52;;;;;;;2.73;2.53;;;;;;;14.71;100.00;96644.94;4871393;28;20270;-58
2023/09/19 04:23:20;;;;;;;4.00;3.30;;;;;;;14.61;100.00;96654.25;4937793;28;20258;-60
2023/09/19 04:25:48;;;;;;;3.57;3.17;;;;;;;14.67;100.00;96649.06;4934373;28;20246;-60
2023/09/19 04:28:16;;;;;;;3.10;2.90;;;;;;;14.63;100.00;96643.38;4938895;28;20231;-58
2023/09/19 04:30:44;;;;;;;4.13;2.60;;;;;;;14.68;100.00;96650.69;4879713;28;20226;-60
2023/09/19 04:33:14;;;;;;;3.67;3.10;;;;;;;14.66;100.00;96661.59;4936492;28;20238;-61
2023/09/19 04:35:42;;;;;;;3.00;2.80;;;;;;;14.72;100.00;96655.41;4933174;28;20786;-59
2023/09/19 04:38:11;;;;;;;4.00;2.80;;;;;;;14.71;100.00;96658.28;4939789;28;20652;-60
2023/09/19 04:40:40;;;;;;;3.13;2.70;;;;;;;14.69;100.00;96652.31;4934339;28;20210;-62
2023/09/19 04:43:08;;;;;;;2.83;2.63;;;;;;;14.57;100.00;96658.41;4937243;28;20207;-55
2023/09/19 04:45:35;;;;;;;2.87;2.67;;;;;;;14.57;100.00;96660.25;4853368;28;21191;-56
2023/09/19 04:48:04;;;;;;;2.90;2.70;;;;;;;14.53;100.00;96665.22;4940465;28;20252;-61
2023/09/19 04:50:31;;;;;;;3.83;2.70;;;;;;;14.54;100.00;96666.03;4915556;28;20318;-59
2023/09/19 04:53:00;;;;;;;2.60;2.50;;;;;;;14.51;100.00;96666.47;4941013;28;20258;-61
2023/09/19 04:55:30;;;;;;;3.50;3.20;;;;;;;14.49;100.00;96666.69;4934534;28;20738;-59
2023/09/19 04:57:58;;;;;;;4.13;2.80;;;;;;;14.52;100.00;96676.91;4942325;28;20214;-62
2023/09/19 05:00:27;;;;;;;4.03;3.03;;;;;;;14.58;100.00;96676.03;4879816;28;21120;-59
2023/09/19 05:02:56;;;;;;;6.97;2.97;;;;;;;14.60;100.00;96681.94;4941004;28;20207;-58
2023/09/19 05:05:25;;;;;;;3.00;2.80;;;;;;;14.63;100.00;96686.03;4935085;28;20363;-61
2023/09/19 05:07:54;;;;;;;2.70;2.57;;;;;;;14.66;100.00;96688.25;4939171;28;20207;-60
2023/09/19 05:10:22;;;;;;;3.10;2.80;;;;;;;14.70;100.00;96691.28;4936761;28;20908;-59
2023/09/19 05:12:53;;;;;;;3.10;2.90;;;;;;;14.72;100.00;96682.06;4941513;28;20647;-60
2023/09/19 05:15:21;;;;;;;2.53;2.40;;;;;;;14.82;100.00;96683.38;4935159;28;20284;-58
2023/09/19 05:17:51;;;;;;;2.37;2.10;;;;;;;14.79;100.00;96678.50;4944275;28;20203;-60
2023/09/19 05:20:32;;;;;;;2.60;2.37;;;;;;;14.88;100.00;96680.66;4841533;28;20348;-57
2023/09/19 05:23:01;;;;;;;3.27;2.40;;;;;;;14.88;100.00;96685.97;4942697;28;20203;-62
2023/09/19 05:25:30;;;;;;;2.57;2.37;;;;;;;14.88;100.00;96693.16;4934860;28;20234;-63
2023/09/19 05:28:03;;;;;;;3.00;2.40;;;;;;;14.88;100.00;96685.16;4942676;28;20233;-61
2023/09/19 05:30:31;;;;;;;2.47;2.27;;;;;;;14.81;100.00;96690.59;4937744;28;20223;-60
2023/09/19 05:32:59;;;;;;;2.67;2.47;;;;;;;14.82;100.00;96686.03;4940456;28;20815;-61
2023/09/19 05:35:27;;;;;;;3.47;2.40;;;;;;;14.68;100.00;96685.34;4881442;28;20325;-61
2023/09/19 05:37:55;;;;;;;2.70;2.50;;;;;;;14.64;100.00;96679.66;4941174;28;20223;-61
2023/09/19 05:40:24;;;;;;;2.90;2.73;;;;;;;14.60;100.00;96683.81;4933657;28;20207;-58
2023/09/19 05:42:51;;;;;;;3.20;2.80;;;;;;;14.51;100.00;96679.78;4942931;28;20651;-58
2023/09/19 05:45:22;;;;;;;2.67;2.47;;;;;;;14.47;100.00;96690.09;4935728;28;20406;-60
2023/09/19 05:47:50;;;;;;;3.23;3.07;;;;;;;14.41;100.00;96688.31;4940085;28;20210;-60
2023/09/19 05:50:19;;;;;;;2.57;2.47;;;;;;;14.34;100.00;96677.72;4846377;28;20803;-59
2023/09/19 05:52:52;;;;;;;3.27;3.07;;;;;;;14.38;100.00;96694.06;4940891;28;20222;-61
2023/09/19 05:55:20;;;;;;;2.90;2.80;;;;;;;14.34;100.00;96696.38;4936532;28;20226;-61
2023/09/19 05:57:51;;;;;;;2.20;2.10;;;;;;;14.29;100.00;96701.56;4941550;28;20211;-59
2023/09/19 06:00:22;;;;;;;2.37;2.23;;;;;;;14.26;100.00;96702.78;4936695;28;20215;-62
2023/09/19 06:02:51;;;;;;;1.80;1.70;;;;;;;14.26;100.00;96708.13;4940962;28;20207;-61
2023/09/19 06:05:19;;;;;;;2.00;1.90;;;;;;;14.35;100.00;96708.66;4937071;28;20418;-61
2023/09/19 06:07:47;;;;;;;2.50;2.40;;;;;;;14.40;100.00;96716.81;4936976;28;20239;-60
2023/09/19 06:10:17;;;;;;;2.03;1.93;;;;;;;14.44;100.00;96720.66;4892689;28;20243;-59
2023/09/19 06:12:45;;;;;;;2.00;1.90;;;;;;;14.50;100.00;96718.97;4937859;28;20962;-59
2023/09/19 06:15:15;;;;;;;3.50;2.27;;;;;;;14.65;100.00;96728.47;4938054;28;20203;-60
2023/09/19 06:17:47;;;;;;;2.67;2.50;;;;;;;14.67;100.00;96734.38;4937249;28;20218;-59
2023/09/19 06:20:16;;;;;;;2.30;2.10;;;;;;;14.82;100.00;96737.53;4845588;28;20618;-64
2023/09/19 06:22:49;;;;;;;2.60;2.00;;;;;;;15.11;100.00;96735.13;4938406;28;20222;-61
2023/09/19 06:25:19;;;;;;;2.17;1.97;;;;;;;15.38;100.00;96737.47;4937208;28;20242;-61
2023/09/19 06:27:47;;;;;;;2.23;2.10;;;;;;;15.55;100.00;96735.00;4939704;28;20211;-61
2023/09/19 06:30:17;;;;;;;1.67;1.57;;;;;;;15.68;100.00;96738.50;4937419;28;20734;-59
2023/09/19 06:32:46;;;;;;;2.90;2.67;;;;;;;15.81;100.00;96743.69;4940315;28;20203;-61
2023/09/19 06:35:15;;;;;;;4.10;3.80;;;;;;;15.86;100.00;96740.31;4936522;28;20280;-60
2023/09/19 06:37:43;;;;;;;2.20;2.10;;;;;;;15.93;100.00;96745.59;4940410;28;20298;-57
2023/09/19 06:40:14;;;;;;;2.03;1.93;;;;;;;15.74;100.00;96738.41;4938927;28;20595;-60
2023/09/19 06:42:42;;;;;;;1.83;1.67;;;;;;;15.90;100.00;96741.50;4939468;28;20230;-61
2023/09/19 06:45:13;;;;;;;1.97;1.73;;;;;;;15.84;100.00;96734.38;4897229;28;23147;-59
2023/09/19 06:47:41;;;;;;;1.30;1.30;;;;;;;16.18;100.00;96734.69;4933110;28;20724;-59
2023/09/19 06:50:13;;;;;;;2.17;2.07;;;;;;;16.24;100.00;96732.97;4878347;28;20779;-58
2023/09/19 06:52:50;;;;;;;1.97;1.83;;;;;;;16.34;100.00;96735.88;4938799;28;20289;-60
2023/09/19 06:55:19;;;;;;;2.77;1.70;;;;;;;16.24;100.00;96738.31;4935871;28;20231;-59
2023/09/19 06:57:47;;;;;;;1.53;1.53;;;;;;;16.45;100.00;96734.25;4938799;28;20199;-62
2023/09/19 07:00:18;;;;;;;1.40;1.30;;;;;;;16.60;100.00;96734.59;4936568;28;20210;-61
2023/09/19 07:02:46;;;;;;;1.80;1.50;;;;;;;16.61;100.00;96738.88;4936895;28;20207;-60
2023/09/19 07:05:16;;;;;;;2.40;1.77;;;;;;;16.63;100.00;96744.00;4937861;28;20444;-60
2023/09/19 07:07:45;;;;;;;1.60;1.50;;;;;;;16.54;100.00;96753.44;4936671;28;20199;-60
2023/09/19 07:10:13;;;;;;;1.87;1.73;;;;;;;16.83;100.00;96742.81;4937060;28;20381;-61
2023/09/19 07:12:42;;;;;;;2.13;2.03;;;;;;;17.00;100.00;96746.44;4938240;28;20540;-60
2023/09/19 07:15:10;;;;;;;1.73;1.60;;;;;;;16.97;100.00;96757.59;4937906;28;20694;-59
2023/09/19 07:17:37;;;;;;;1.63;1.53;;;;;;;17.09;100.00;96757.59;4936063;28;20611;-60
2023/09/19 07:20:08;;;;;;;1.70;1.60;;;;;;;16.99;100.00;96760.88;4903231;28;20417;-59
2023/09/19 07:22:39;;;;;;;1.67;1.57;;;;;;;17.14;100.00;96748.84;4923948;28;20214;-60
2023/09/19 07:25:08;;;;;;;1.33;1.33;;;;;;;17.07;100.00;96757.81;4873837;28;25410;-61
2023/09/19 07:27:41;;;;;;;1.77;1.67;;;;;;;17.14;100.00;96755.03;4922066;28;20447;-59
2023/09/19 07:30:09;;;;;;;1.63;1.53;;;;;;;16.99;100.00;96755.50;4938327;28;20305;-60
2023/09/19 07:32:38;;;;;;;1.40;1.30;;;;;;;17.21;100.00;96749.50;4936581;28;20576;-59
2023/09/19 07:35:06;;;;;;;1.90;1.80;;;;;;;17.15;100.00;96756.66;4936820;28;20215;-60
2023/09/19 07:37:38;;;;;;;3.17;1.27;;;;;;;17.19;100.00;96765.00;4938983;28;20215;-61
2023/09/19 07:40:09;;;;;;;2.00;1.63;;;;;;;17.39;100.00;96772.63;4937143;28;20194;-59
2023/09/19 07:42:40;;;;;;;1.60;1.50;;;;;;;17.53;100.00;96775.84;4936276;28;20218;-60
2023/09/19 07:45:09;;;;;;;1.50;1.40;;;;;;;17.65;100.00;96775.81;4936709;28;20685;-61
2023/09/19 07:47:37;;;;;;;2.57;1.40;;;;;;;17.69;100.00;96781.50;4935996;28;20258;-57
2023/09/19 07:50:07;;;;;;;1.07;0.97;;;;;;;17.48;100.00;96781.94;4902206;28;20706;-58
2023/09/19 07:52:35;;;;;;;2.57;1.77;;;;;;;17.30;100.00;96780.25;4925773;28;20631;-60
2023/09/19 07:55:08;;;;;;;1.17;1.17;;;;;;;17.45;100.00;96781.59;4938449;28;20719;-61
2023/09/19 07:57:37;;;;;;;1.73;1.40;;;;;;;17.58;100.00;96783.97;4938828;28;20225;-60
2023/09/19 08:00:11;;;;;;;1.63;1.57;;;;;;;17.73;100.00;96783.44;4892449;28;21451;-61
2023/09/19 08:02:40;;;;;;;4.97;4.57;;;;;;;17.74;100.00;96784.28;4924008;28;20206;-59
2023/09/19 08:05:09;;;;;;;1.70;1.60;;;;;;;17.90;100.00;96790.72;4942188;28;20226;-58
2023/09/19 08:07:38;;;;;;;1.47;1.37;;;;;;;17.85;100.00;96794.13;4941636;28;20203;-59
2023/09/19 08:10:12;;;;;;;1.17;1.07;;;;;;;18.01;100.00;96778.34;4940115;28;20453;-59
2023/09/19 08:12:46;;;;;;;2.10;1.73;;;;;;;18.03;100.00;96797.69;4941859;28;20218;-60
2023/09/19 08:15:14;;;;;;;1.80;1.70;;;;;;;18.01;100.00;96795.22;4936512;28;20895;-60
2023/09/19 08:17:42;;;;;;;2.10;1.90;;;;;;;17.92;100.00;96800.13;4941163;28;20226;-60
2023/09/19 08:20:16;;;;;;;1.50;1.30;;;;;;;17.82;100.00;96794.59;4938441;28;20209;-59
2023/09/19 08:22:47;;;;;;;2.70;1.50;;;;;;;17.78;100.00;96796.13;4942445;28;20230;-60
2023/09/19 08:25:18;;;;;;;1.40;1.40;;;;;;;17.71;100.00;96790.91;4891389;28;20266;-58
2023/09/19 08:27:48;;;;;;;1.30;1.20;;;;;;;17.47;100.00;96799.06;4941540;28;20475;-61
2023/09/19 08:30:17;;;;;;;1.40;1.40;;;;;;;17.57;100.00;96790.38;4857006;28;21131;-58
2023/09/19 08:32:46;;;;;;;1.60;1.50;;;;;;;18.06;100.00;96797.19;4936718;28;20305;-60
2023/09/19 08:35:14;;;;;;;3.77;2.60;;;;;;;18.21;100.00;96789.41;4940231;28;20238;-60
2023/09/19 08:37:45;;;;;;;2.33;1.47;;;;;;;18.58;100.00;96784.59;4941334;28;20682;-55
2023/09/19 08:40:13;;;;;;;1.80;1.70;;;;;;;18.38;100.00;96796.66;4937414;28;20310;-61
2023/09/19 08:42:53;;;;;;;1.60;1.50;;;;;;;18.65;100.00;96796.81;4941945;28;20207;-60
2023/09/19 08:45:23;;;;;;;2.70;1.50;;;;;;;18.80;100.00;96788.16;4939357;28;20230;-60
2023/09/19 08:47:58;;;;;;;2.00;1.57;;;;;;;18.52;100.00;96792.59;4941117;28;20203;-60
2023/09/19 08:50:29;;;;;;;1.67;1.57;;;;;;;18.58;100.00;96795.34;4938238;28;20248;-59
2023/09/19 08:52:57;;;;;;;1.60;1.50;;;;;;;18.81;100.00;96802.38;4939583;28;20215;-61
2023/09/19 08:55:29;;;;;;;2.57;2.10;;;;;;;18.96;100.00;96796.44;4883275;28;20356;-58
2023/09/19 08:58:01;;;;;;;1.07;1.07;;;;;;;18.92;100.00;96811.41;4940873;28;20734;-62
2023/09/19 09:00:29;;;;;;;1.63;1.53;;;;;;;18.80;100.00;96815.00;4939623;28;20213;-57
2023/09/19 09:02:58;;;;;;;1.63;1.30;;;;;;;18.42;100.00;96821.09;4940545;28;20845;-59
2023/09/19 09:05:26;;;;;;;1.50;1.40;;;;;;;18.55;100.00;96819.97;4858016;28;20983;-58
2023/09/19 09:07:56;;;;;;;2.30;1.40;;;;;;;18.34;100.00;96823.16;4940964;28;20235;-60
2023/09/19 09:10:24;;;;;;;1.40;1.30;;;;;;;18.23;100.00;96824.84;4937967;28;20301;-62
2023/09/19 09:12:53;;;;;;;1.20;1.20;;;;;;;18.39;100.00;96813.56;4940284;28;20570;-58
2023/09/19 09:15:23;;;;;;;1.53;1.43;;;;;;;18.57;100.00;96815.19;4937083;28;20235;-60
2023/09/19 09:17:52;;;;;;;1.73;1.63;;;;;;;18.55;100.00;96828.81;4941848;28;20238;-62
2023/09/19 09:20:21;;;;;;;2.40;1.63;;;;;;;18.62;100.00;96821.44;4937186;28;20474;-60
2023/09/19 09:22:52;;;;;;;1.27;1.27;;;;;;;18.92;100.00;96825.63;4940817;28;20211;-57
2023/09/19 09:25:23;;;;;;;1.27;1.13;;;;;;;19.33;100.00;96820.03;4937386;28;20255;-59
2023/09/19 09:28:01;;;;;;;1.77;1.43;;;;;;;19.65;100.00;96827.41;4938984;28;20289;-60
2023/09/19 09:30:37;;;;;;;2.07;1.63;;;;;;;19.85;100.00;96831.38;4883845;28;20211;-62
2023/09/19 09:33:10;;;;;;;1.50;1.40;;;;;;;19.61;100.00;96837.03;4939808;28;20210;-61
2023/09/19 09:35:51;;;;;;;1.83;1.50;;;;;;;19.42;100.00;96836.53;4938625;28;20237;-61
2023/09/19 09:38:20;;;;;;;3.60;1.60;;;;;;;19.15;100.00;96831.88;4940867;28;20754;-60
2023/09/19 09:40:52;;;;;;;1.23;1.13;;;;;;;19.09;100.00;96841.72;4850987;28;20219;-62
2023/09/19 09:43:28;;;;;;;1.70;1.30;;;;;;;19.22;100.00;96835.19;4942722;28;20218;-61
2023/09/19 09:49:16;;;;;;;2.97;1.57;;;;;;;19.40;100.00;96845.88;4930890;28;20211;-61
2023/09/19 09:51:47;;;;;;;1.30;1.20;;;;;;;18.97;100.00;96848.25;4941903;28;20222;-60
2023/09/19 09:54:17;;;;;;;2.67;2.47;;;;;;;19.17;100.00;96845.06;4937337;28;20587;-61
2023/09/19 09:56:59;;;;;;;1.50;1.40;;;;;;;19.08;100.00;96844.69;4940211;28;20242;-61
2023/09/19 09:59:47;;;;;;;1.13;1.13;;;;;;;19.27;100.00;96845.22;4936357;28;20199;-61
2023/09/19 10:02:22;;;;;;;1.47;1.40;;;;;;;19.20;100.00;96844.56;4939547;28;20908;-60
2023/09/19 10:04:58;;;;;;;1.60;1.50;;;;;;;19.10;100.00;96850.63;4881103;28;20226;-61
2023/09/19 10:07:35;;;;;;;1.30;1.23;;;;;;;19.44;100.00;96847.84;4940809;28;20203;-60
2023/09/19 10:10:15;;;;;;;2.50;1.13;;;;;;;19.44;100.00;96853.22;4935891;28;20219;-59
2023/09/19 10:12:47;;;;;;;1.40;1.40;;;;;;;19.40;100.00;96856.63;4938273;28;20610;-61
2023/09/19 10:15:20;;;;;;;2.87;2.53;;;;;;;19.27;100.00;96853.25;4839498;28;20222;-58
2023/09/19 10:17:49;;;;;;;1.43;1.33;;;;;;;19.56;100.00;96854.97;4941642;28;20384;-61
2023/09/19 10:20:33;;;;;;;1.83;1.67;;;;;;;19.47;100.00;96846.50;4937696;28;20230;-59
2023/09/19 10:23:01;;;;;;;1.60;1.50;;;;;;;19.58;100.00;96842.09;4937362;28;20207;-60
2023/09/19 10:25:30;;;;;;;1.33;1.33;;;;;;;19.98;100.00;96838.25;4938538;28;20234;-62
2023/09/19 10:28:00;;;;;;;1.67;1.27;;;;;;;20.35;100.00;96840.22;4940896;28;20219;-60
2023/09/19 10:30:30;;;;;;;1.00;1.00;;;;;;;20.67;100.00;96846.69;4935958;28;20209;-62
2023/09/19 10:33:01;;;;;;;1.40;1.30;;;;;;;20.57;100.00;96849.28;4938187;28;20259;-61
2023/09/19 10:35:30;;;;;;;1.50;1.37;;;;;;;20.82;100.00;96848.69;4885062;28;20740;-60
2023/09/19 10:38:00;;;;;;;1.53;1.23;;;;;;;20.99;100.00;96840.44;4939891;28;20211;-60
2023/09/19 10:40:30;;;;;;;1.03;0.93;;;;;;;21.02;100.00;96852.59;4934694;28;20230;-58
2023/09/19 10:43:02;;;;;;;1.77;1.17;;;;;;;20.80;100.00;96854.34;4939669;28;20348;-58
2023/09/19 10:45:31;;;;;;;1.10;1.10;;;;;;;20.57;100.00;96851.97;4860216;28;20235;-59
2023/09/19 10:48:03;;;;;;;1.40;1.30;;;;;;;20.29;100.00;96848.53;4939221;28;20218;-60
2023/09/19 10:50:33;;;;;;;1.50;1.33;;;;;;;20.20;100.00;96848.16;4936867;28;20233;-59
2023/09/19 10:53:04;;;;;;;1.10;1.10;;;;;;;20.08;100.00;96835.69;4936753;28;20691;-59
2023/09/19 10:55:36;;;;;;;1.70;1.60;;;;;;;20.31;100.00;96844.50;4936622;28;20226;-59
2023/09/19 10:58:14;;;;;;;1.90;1.80;;;;;;;20.12;100.00;96860.19;4937783;28;20215;-59
2023/09/19 11:00:53;;;;;;;1.67;1.57;;;;;;;20.21;100.00;96864.03;4936346;28;20734;-61
2023/09/19 11:03:30;;;;;;;2.27;2.17;;;;;;;20.38;100.00;96860.44;4938555;28;20210;-60
2023/09/19 11:06:09;;;;;;;1.63;1.53;;;;;;;20.02;100.00;96854.69;4879889;28;22468;-59
2023/09/19 11:09:15;;;;;;;1.67;1.57;;;;;;;20.32;100.00;96851.50;4939982;28;20207;-62
2023/09/19 11:11:50;;;;;;;1.93;1.70;;;;;;;20.13;99.84;96848.34;4938369;28;20262;-61
2023/09/19 11:14:44;;;;;;;3.27;1.90;;;;;;;20.17;100.00;96854.06;4936389;28;20253;-61
2023/09/19 11:17:33;;;;;;;1.50;1.30;;;;;;;20.15;100.00;96846.22;4936233;28;20654;-61
2023/09/19 11:20:35;;;;;;;1.60;1.50;;;;;;;20.33;100.00;96846.94;4845562;28;20234;-61
2023/09/19 11:23:22;;;;;;;2.00;1.90;;;;;;;20.20;99.05;96846.28;4939177;28;20419;-59
2023/09/19 11:25:51;;;;;;;2.00;1.90;;;;;;;20.25;96.71;96854.38;4936476;28;20274;-60
2023/09/19 11:28:33;;;;;;;1.77;1.67;;;;;;;20.39;100.00;96849.41;4939596;28;20207;-61
2023/09/19 11:31:51;;;;;;;1.97;1.83;;;;;;;20.66;97.49;96845.88;4932264;28;20686;-59
2023/09/19 11:34:45;;;;;;;1.80;1.70;;;;;;;20.60;95.76;96843.38;4933966;28;20214;-62
2023/09/19 11:38:10;;;;;;;1.80;1.70;;;;;;;20.29;94.69;96848.53;4935939;28;20234;-60
2023/09/19 11:40:39;;;;;;;2.37;2.17;;;;;;;19.90;94.55;96852.97;4883090;28;20211;-59
2023/09/19 11:43:30;;;;;;;2.10;2.00;;;;;;;19.99;97.92;96855.22;4937472;28;20674;-59
2023/09/19 11:46:05;;;;;;;2.33;1.93;;;;;;;19.72;97.94;96851.41;4934946;28;20250;-60